Private Wetterstation Wechselburg
Wetterdaten: Donnerstag, 24.05.2018
Datum Zeit Temp. +2m Bodentemp. Temp.+5cm Temp. Wind Windchill X Diff Temp. Feuchte +2m Feuchte +5cm Luftdruck Regen Wind Richtung Richtung Sonnenschein Taupunkt Windchill Windben
24.05.2018 00:00 15,3 C 17,2 C 14,9 C 15,3 C 15,2 C 0,0 C 85 % 65 % 1020,1 hPa 0,0 l/m 0,0 km/h (0 Bft) NO 45 0 min 12,8 C 15,2 C 0,0 km/h (0 Bft)
24.05.2018 00:05 15,3 C 17,1 C 14,8 C 15,4 C 15,4 C 0,1 C 85 % 65 % 1020,1 hPa 0,0 l/m 0,0 km/h (0 Bft) N-NO 22 0 min 12,8 C 15,4 C 0,0 km/h (0 Bft)
24.05.2018 00:10 15,3 C 17,0 C 14,8 C 15,6 C 15,6 C 0,3 C 85 % 65 % 1020,1 hPa 0,0 l/m 0,0 km/h (0 Bft) N-NO 22 0 min 12,8 C 15,6 C 0,0 km/h (0 Bft)
24.05.2018 00:15 15,2 C 16,9 C 14,8 C 15,7 C 15,7 C 0,5 C 85 % 65 % 1020,1 hPa 0,0 l/m 0,0 km/h (0 Bft) NO 45 0 min 12,7 C 15,7 C 0,0 km/h (0 Bft)
24.05.2018 00:20 15,2 C 16,9 C 14,9 C 15,8 C 15,8 C 0,6 C 85 % 65 % 1020,1 hPa 0,0 l/m 0,0 km/h (0 Bft) O-NO 67 0 min 12,7 C 15,8 C 0,0 km/h (0 Bft)
24.05.2018 00:25 15,2 C 16,9 C 14,9 C 15,8 C 15,8 C 0,6 C 85 % 65 % 1020,1 hPa 0,0 l/m 0,0 km/h (0 Bft) NO 45 0 min 12,7 C 15,8 C 0,0 km/h (0 Bft)
24.05.2018 00:30 15,3 C 16,9 C 14,9 C 15,8 C 15,8 C 0,5 C 85 % 65 % 1020,1 hPa 0,0 l/m 0,0 km/h (0 Bft) NO 45 0 min 12,8 C 15,8 C 0,0 km/h (0 Bft)
24.05.2018 00:35 15,2 C 16,8 C 14,8 C 15,8 C 15,8 C 0,6 C 85 % 65 % 1020,1 hPa 0,0 l/m 0,0 km/h (0 Bft) N-NO 22 0 min 12,7 C 15,8 C 0,0 km/h (0 Bft)
24.05.2018 00:40 15,2 C 16,8 C 14,8 C 15,8 C 15,8 C 0,6 C 85 % 65 % 1020,1 hPa 0,0 l/m 0,0 km/h (0 Bft) NO 45 0 min 12,7 C 15,8 C 0,0 km/h (0 Bft)
24.05.2018 00:45 15,2 C 16,8 C 14,8 C 15,8 C 15,8 C 0,6 C 85 % 65 % 1020,1 hPa 0,0 l/m 0,0 km/h (0 Bft) N-NO 22 0 min 12,7 C 15,8 C 0,0 km/h (0 Bft)
24.05.2018 00:50 15,2 C 16,8 C 14,8 C 15,9 C 15,9 C 0,7 C 85 % 65 % 1020,1 hPa 0,0 l/m 0,0 km/h (0 Bft) N-NO 22 0 min 12,7 C 15,9 C 0,0 km/h (0 Bft)
24.05.2018 00:55 15,3 C 16,8 C 14,9 C 16,0 C 16,0 C 0,7 C 84 % 65 % 1020,2 hPa 0,0 l/m 0,2 km/h (0 Bft) N-NO 22 0 min 12,6 C 16,0 C 0,0 km/h (0 Bft)
24.05.2018 01:00 15,6 C 16,8 C 15,0 C 16,3 C 16,3 C 0,7 C 84 % 65 % 1020,2 hPa 0,0 l/m 0,8 km/h (0 Bft) NO 45 0 min 12,9 C 16,3 C 0,0 km/h (0 Bft)
24.05.2018 01:05 15,6 C 16,8 C 15,1 C 16,3 C 16,3 C 0,7 C 84 % 65 % 1020,2 hPa 0,0 l/m 0,6 km/h (0 Bft) O-NO 67 0 min 12,9 C 16,3 C 0,0 km/h (0 Bft)
24.05.2018 01:10 15,7 C 16,7 C 14,9 C 16,2 C 16,2 C 0,5 C 83 % 66 % 1020,2 hPa 0,0 l/m 0,0 km/h (0 Bft) NO 45 0 min 12,8 C 16,2 C 0,0 km/h (0 Bft)
24.05.2018 01:15 15,7 C 16,8 C 14,9 C 16,0 C 16,0 C 0,3 C 83 % 66 % 1020,2 hPa 0,0 l/m 0,0 km/h (0 Bft) O-NO 67 0 min 12,8 C 16,0 C 0,0 km/h (0 Bft)
24.05.2018 01:20 15,7 C 16,8 C 14,9 C 15,7 C 15,7 C 0,0 C 83 % 66 % 1020,2 hPa 0,0 l/m 0,0 km/h (0 Bft) O-NO 67 0 min 12,8 C 15,7 C 0,0 km/h (0 Bft)
24.05.2018 01:25 15,7 C 16,8 C 14,8 C 15,7 C 15,6 C 0,0 C 83 % 67 % 1020,2 hPa 0,0 l/m 0,0 km/h (0 Bft) NO 45 0 min 12,8 C 15,6 C 0,0 km/h (0 Bft)
24.05.2018 01:30 15,7 C 16,8 C 14,9 C 15,6 C 15,4 C 0,0 C 83 % 67 % 1020,2 hPa 0,0 l/m 0,0 km/h (0 Bft) NO 45 0 min 12,8 C 15,4 C 0,0 km/h (0 Bft)
24.05.2018 01:35 15,6 C 16,8 C 14,8 C 15,5 C 15,4 C 0,0 C 83 % 67 % 1020,0 hPa 0,0 l/m 0,0 km/h (0 Bft) N-NO 22 0 min 12,7 C 15,4 C 0,0 km/h (0 Bft)
24.05.2018 01:40 15,7 C 16,8 C 14,7 C 15,6 C 15,3 C 0,0 C 83 % 67 % 1020,0 hPa 0,0 l/m 0,0 km/h (0 Bft) N-NO 22 0 min 12,8 C 15,3 C 0,0 km/h (0 Bft)
24.05.2018 01:45 15,7 C 16,8 C 14,7 C 15,6 C 15,4 C 0,0 C 83 % 67 % 1020,0 hPa 0,0 l/m 0,2 km/h (0 Bft) NO 45 0 min 12,8 C 15,4 C 0,0 km/h (0 Bft)
24.05.2018 01:50 15,6 C 16,7 C 14,7 C 15,6 C 15,5 C 0,0 C 83 % 67 % 1020,0 hPa 0,0 l/m 0,2 km/h (0 Bft) O-NO 67 0 min 12,7 C 15,5 C 0,0 km/h (0 Bft)
24.05.2018 01:55 15,6 C 16,6 C 14,7 C 15,6 C 15,5 C 0,0 C 83 % 67 % 1020,2 hPa 0,0 l/m 0,0 km/h (0 Bft) N-NO 22 0 min 12,7 C 15,5 C 0,0 km/h (0 Bft)
24.05.2018 02:00 15,6 C 16,6 C 14,7 C 15,7 C 15,7 C 0,1 C 83 % 66 % 1020,2 hPa 0,0 l/m 0,8 km/h (0 Bft) O-NO 67 0 min 12,7 C 15,7 C 1,9 km/h (1 Bft)
24.05.2018 02:05 15,8 C 16,5 C 14,9 C 15,9 C 15,9 C 0,1 C 83 % 66 % 1020,2 hPa 0,0 l/m 1,9 km/h (1 Bft) NO 45 0 min 12,9 C 15,9 C 3,2 km/h (1 Bft)
24.05.2018 02:10 16,1 C 16,5 C 15,2 C 16,1 C 16,1 C 0,0 C 82 % 67 % 1020,2 hPa 0,0 l/m 2,1 km/h (1 Bft) NO 45 0 min 13,0 C 16,1 C 1,8 km/h (1 Bft)
24.05.2018 02:15 16,1 C 16,6 C 15,3 C 16,2 C 16,2 C 0,1 C 82 % 68 % 1020,2 hPa 0,0 l/m 1,8 km/h (1 Bft) NO 45 0 min 13,0 C 16,2 C 4,7 km/h (1 Bft)
24.05.2018 02:20 16,3 C 16,5 C 15,7 C 16,3 C 16,3 C 0,0 C 81 % 72 % 1020,2 hPa 0,0 l/m 1,9 km/h (1 Bft) O-NO 67 0 min 13,0 C 16,3 C 2,6 km/h (1 Bft)
24.05.2018 02:25 16,4 C 16,5 C 16,1 C 16,4 C 16,3 C 0,0 C 80 % 76 % 1020,2 hPa 0,0 l/m 2,4 km/h (1 Bft) O-NO 67 0 min 12,9 C 16,3 C 4,5 km/h (1 Bft)
24.05.2018 02:30 16,5 C 16,5 C 16,2 C 16,5 C 16,5 C 0,0 C 80 % 78 % 1020,2 hPa 0,0 l/m 2,9 km/h (1 Bft) O-NO 67 0 min 13,0 C 16,5 C 2,7 km/h (1 Bft)
24.05.2018 02:35 16,5 C 16,5 C 16,1 C 16,5 C 16,4 C 0,0 C 80 % 77 % 1020,4 hPa 0,0 l/m 2,1 km/h (1 Bft) NO 45 0 min 13,0 C 16,4 C 6,0 km/h (2 Bft)
24.05.2018 02:40 16,4 C 16,5 C 16,0 C 16,4 C 16,3 C 0,0 C 79 % 77 % 1020,4 hPa 0,0 l/m 0,8 km/h (0 Bft) NO 45 0 min 12,7 C 16,3 C 1,6 km/h (1 Bft)
24.05.2018 02:45 16,5 C 16,5 C 16,0 C 16,4 C 16,3 C 0,0 C 79 % 78 % 1020,4 hPa 0,0 l/m 1,9 km/h (1 Bft) O-NO 67 0 min 12,8 C 16,3 C 4,5 km/h (1 Bft)
24.05.2018 02:50 16,7 C 16,4 C 16,3 C 16,6 C 16,5 C 0,0 C 79 % 81 % 1020,4 hPa 0,0 l/m 3,7 km/h (1 Bft) O-NO 67 0 min 13,0 C 16,5 C 2,9 km/h (1 Bft)
24.05.2018 02:55 16,7 C 16,4 C 16,2 C 16,7 C 16,6 C 0,0 C 78 % 82 % 1020,6 hPa 0,0 l/m 3,4 km/h (1 Bft) O-NO 67 0 min 12,8 C 16,6 C 6,9 km/h (2 Bft)
24.05.2018 03:00 16,8 C 16,4 C 16,3 C 16,8 C 16,7 C 0,0 C 78 % 84 % 1020,6 hPa 0,0 l/m 3,1 km/h (1 Bft) NO 45 0 min 12,9 C 16,7 C 2,7 km/h (1 Bft)
24.05.2018 03:05 16,9 C 16,4 C 16,3 C 16,8 C 16,7 C 0,0 C 78 % 85 % 1020,6 hPa 0,0 l/m 3,1 km/h (1 Bft) O-NO 67 0 min 13,0 C 16,7 C 8,0 km/h (2 Bft)
24.05.2018 03:10 16,9 C 16,4 C 16,3 C 16,8 C 16,7 C 0,0 C 78 % 85 % 1020,6 hPa 0,0 l/m 2,7 km/h (1 Bft) O-NO 67 0 min 13,0 C 16,7 C 2,7 km/h (1 Bft)
24.05.2018 03:15 16,8 C 16,4 C 16,2 C 16,7 C 16,6 C 0,0 C 78 % 85 % 1020,4 hPa 0,0 l/m 2,3 km/h (1 Bft) O-NO 67 0 min 12,9 C 16,6 C 1,8 km/h (1 Bft)
24.05.2018 03:20 16,7 C 16,4 C 16,2 C 16,6 C 16,4 C 0,0 C 77 % 84 % 1020,4 hPa 0,0 l/m 1,1 km/h (1 Bft) NO 45 0 min 12,6 C 16,4 C 0,0 km/h (0 Bft)
24.05.2018 03:25 16,6 C 16,4 C 16,0 C 16,5 C 16,3 C 0,0 C 78 % 83 % 1020,4 hPa 0,0 l/m 0,3 km/h (0 Bft) NO 45 0 min 12,7 C 16,3 C 1,9 km/h (1 Bft)
24.05.2018 03:30 16,4 C 16,4 C 16,1 C 16,3 C 16,1 C 0,0 C 78 % 82 % 1020,4 hPa 0,0 l/m 0,2 km/h (0 Bft) NO 45 0 min 12,6 C 16,1 C 1,6 km/h (1 Bft)
24.05.2018 03:35 16,4 C 16,5 C 16,0 C 16,3 C 16,1 C 0,0 C 78 % 82 % 1020,7 hPa 0,0 l/m 0,3 km/h (0 Bft) O-NO 67 0 min 12,6 C 16,1 C 1,8 km/h (1 Bft)
24.05.2018 03:40 16,3 C 16,4 C 15,9 C 16,2 C 15,9 C 0,0 C 79 % 81 % 1020,7 hPa 0,0 l/m 0,5 km/h (0 Bft) O-NO 67 0 min 12,6 C 15,9 C 0,0 km/h (0 Bft)
24.05.2018 03:45 16,2 C 16,4 C 15,9 C 16,1 C 15,8 C 0,0 C 79 % 81 % 1020,7 hPa 0,0 l/m 0,6 km/h (0 Bft) O-NO 67 0 min 12,6 C 15,8 C 2,7 km/h (1 Bft)
24.05.2018 03:50 16,3 C 16,4 C 15,8 C 16,1 C 15,8 C 0,0 C 79 % 84 % 1020,7 hPa 0,0 l/m 2,1 km/h (1 Bft) O-NO 67 0 min 12,6 C 15,8 C 5,5 km/h (1 Bft)
24.05.2018 03:55 16,3 C 16,3 C 15,8 C 16,2 C 15,9 C 0,0 C 79 % 86 % 1020,3 hPa 0,0 l/m 3,1 km/h (1 Bft) O-NO 67 0 min 12,6 C 15,9 C 3,5 km/h (1 Bft)
24.05.2018 04:00 16,4 C 16,4 C 15,9 C 16,3 C 16,1 C 0,0 C 79 % 87 % 1020,3 hPa 0,0 l/m 4,0 km/h (1 Bft) O-NO 67 0 min 12,7 C 16,1 C 4,3 km/h (1 Bft)
24.05.2018 04:05 16,4 C 16,3 C 16,0 C 16,3 C 16,2 C 0,0 C 79 % 87 % 1020,3 hPa 0,0 l/m 4,0 km/h (1 Bft) O-NO 67 0 min 12,7 C 16,2 C 3,2 km/h (1 Bft)
24.05.2018 04:10 16,4 C 16,3 C 16,1 C 16,3 C 16,2 C 0,0 C 79 % 87 % 1020,3 hPa 0,0 l/m 3,2 km/h (1 Bft) O-NO 67 0 min 12,7 C 16,2 C 2,4 km/h (1 Bft)
24.05.2018 04:15 16,4 C 16,3 C 16,1 C 16,3 C 16,2 C 0,0 C 79 % 87 % 1020,2 hPa 0,0 l/m 2,7 km/h (1 Bft) O-NO 67 0 min 12,7 C 16,2 C 4,2 km/h (1 Bft)
24.05.2018 04:20 16,4 C 16,4 C 16,0 C 16,3 C 16,2 C 0,0 C 79 % 87 % 1020,2 hPa 0,0 l/m 2,6 km/h (1 Bft) O-NO 67 0 min 12,7 C 16,2 C 2,3 km/h (1 Bft)
24.05.2018 04:25 16,5 C 16,4 C 16,0 C 16,4 C 16,1 C 0,0 C 79 % 87 % 1020,2 hPa 0,0 l/m 2,3 km/h (1 Bft) NO 45 0 min 12,8 C 16,1 C 0,0 km/h (0 Bft)
24.05.2018 04:30 16,3 C 16,4 C 15,8 C 16,2 C 15,9 C 0,0 C 79 % 86 % 1020,2 hPa 0,0 l/m 1,4 km/h (1 Bft) O-NO 67 0 min 12,6 C 15,9 C 1,9 km/h (1 Bft)
24.05.2018 04:35 16,3 C 16,3 C 15,8 C 16,1 C 15,8 C 0,0 C 79 % 87 % 1020,2 hPa 0,0 l/m 1,8 km/h (1 Bft) O-NO 67 0 min 12,6 C 15,8 C 2,7 km/h (1 Bft)
24.05.2018 04:40 16,2 C 16,3 C 15,8 C 16,1 C 15,8 C 0,0 C 80 % 86 % 1020,2 hPa 0,0 l/m 1,8 km/h (1 Bft) O-NO 67 0 min 12,7 C 15,8 C 1,8 km/h (1 Bft)
24.05.2018 04:45 16,1 C 16,3 C 15,8 C 16,0 C 15,7 C 0,0 C 80 % 86 % 1020,2 hPa 0,0 l/m 1,3 km/h (1 Bft) NO 45 0 min 12,6 C 15,7 C 2,1 km/h (1 Bft)
24.05.2018 04:50 16,0 C 16,3 C 15,8 C 15,9 C 15,7 C 0,0 C 80 % 86 % 1020,2 hPa 0,0 l/m 0,5 km/h (0 Bft) NO 45 0 min 12,5 C 15,7 C 0,0 km/h (0 Bft)
24.05.2018 04:55 16,1 C 16,3 C 15,6 C 15,9 C 15,6 C 0,0 C 80 % 86 % 1020,1 hPa 0,0 l/m 0,3 km/h (0 Bft) NO 45 0 min 12,6 C 15,6 C 0,0 km/h (0 Bft)
24.05.2018 05:05 15,9 C 16,3 C 15,6 C 15,7 C 15,4 C 0,0 C 80 % 85 % 1020,1 hPa 0,0 l/m 0,0 km/h (0 Bft) NW 315 0 min 12,5 C 15,4 C 0,0 km/h (0 Bft)
24.05.2018 05:10 15,9 C 16,4 C 15,7 C 15,7 C 15,3 C 0,0 C 81 % 85 % 1020,1 hPa 0,0 l/m 0,0 km/h (0 Bft) N-NW 337 0 min 12,6 C 15,3 C 0,0 km/h (0 Bft)
24.05.2018 05:15 15,8 C 16,3 C 15,6 C 15,6 C 15,3 C 0,0 C 81 % 85 % 1020,2 hPa 0,0 l/m 0,0 km/h (0 Bft) N-NW 337 0 min 12,5 C 15,3 C 0,0 km/h (0 Bft)
24.05.2018 05:20 15,7 C 16,4 C 15,5 C 15,5 C 15,2 C 0,0 C 81 % 84 % 1020,2 hPa 0,0 l/m 0,0 km/h (0 Bft) N 360 0 min 12,4 C 15,2 C 0,0 km/h (0 Bft)
24.05.2018 05:25 15,7 C 16,3 C 15,5 C 15,5 C 15,0 C 0,0 C 81 % 84 % 1020,2 hPa 0,0 l/m 0,0 km/h (0 Bft) NO 45 0 min 12,4 C 15,0 C 0,0 km/h (0 Bft)
24.05.2018 05:30 15,6 C 16,3 C 15,5 C 15,3 C 14,8 C 0,0 C 81 % 84 % 1020,2 hPa 0,0 l/m 0,0 km/h (0 Bft) NO 45 0 min 12,3 C 14,8 C 0,0 km/h (0 Bft)
24.05.2018 05:35 15,7 C 16,3 C 15,4 C 15,4 C 14,7 C 0,0 C 81 % 85 % 1020,1 hPa 0,0 l/m 0,2 km/h (0 Bft) O 90 0 min 12,4 C 14,7 C 1,6 km/h (1 Bft)
24.05.2018 05:40 15,6 C 16,3 C 15,3 C 15,3 C 14,8 C 0,0 C 81 % 86 % 1020,1 hPa 0,0 l/m 1,1 km/h (1 Bft) O 90 0 min 12,3 C 14,8 C 1,9 km/h (1 Bft)
24.05.2018 05:45 15,6 C 16,3 C 15,5 C 15,4 C 14,9 C 0,0 C 82 % 86 % 1020,1 hPa 0,0 l/m 1,4 km/h (1 Bft) O-NO 67 0 min 12,5 C 14,9 C 2,6 km/h (1 Bft)
24.05.2018 05:50 15,5 C 16,3 C 15,4 C 15,3 C 14,9 C 0,0 C 82 % 86 % 1020,1 hPa 0,0 l/m 1,6 km/h (1 Bft) O-NO 67 0 min 12,4 C 14,9 C 2,3 km/h (1 Bft)
24.05.2018 05:55 15,5 C 16,3 C 15,5 C 15,3 C 14,9 C 0,0 C 82 % 86 % 1020,2 hPa 0,0 l/m 1,8 km/h (1 Bft) O-NO 67 0 min 12,4 C 14,9 C 1,9 km/h (1 Bft)
24.05.2018 06:00 15,5 C 16,3 C 15,3 C 15,3 C 14,9 C 0,0 C 82 % 86 % 1020,2 hPa 0,0 l/m 1,0 km/h (0 Bft) O-NO 67 0 min 12,4 C 14,9 C 0,0 km/h (0 Bft)
24.05.2018 06:05 15,4 C 16,3 C 15,3 C 15,2 C 14,9 C 0,0 C 82 % 86 % 1020,2 hPa 0,0 l/m 0,3 km/h (0 Bft) O-NO 67 0 min 12,3 C 14,9 C 0,0 km/h (0 Bft)
24.05.2018 06:10 15,5 C 16,4 C 15,3 C 15,2 C 14,7 C 0,0 C 82 % 85 % 1020,2 hPa 0,0 l/m 0,3 km/h (0 Bft) O-NO 67 0 min 12,4 C 14,7 C 2,3 km/h (1 Bft)
24.05.2018 06:15 15,5 C 16,3 C 15,3 C 15,2 C 14,7 C 0,0 C 82 % 86 % 1020,6 hPa 0,0 l/m 1,0 km/h (0 Bft) O-NO 67 0 min 12,4 C 14,7 C 1,8 km/h (1 Bft)
24.05.2018 06:20 15,3 C 16,3 C 15,3 C 15,0 C 14,5 C 0,0 C 82 % 86 % 1020,6 hPa 0,0 l/m 1,1 km/h (1 Bft) N-NW 337 0 min 12,2 C 14,5 C 0,0 km/h (0 Bft)
24.05.2018 06:25 15,3 C 16,3 C 15,3 C 15,0 C 14,3 C 0,0 C 82 % 86 % 1020,6 hPa 0,0 l/m 0,5 km/h (0 Bft) N-NO 22 0 min 12,2 C 14,3 C 0,0 km/h (0 Bft)
24.05.2018 06:30 15,2 C 16,3 C 15,2 C 14,8 C 14,1 C 0,0 C 83 % 85 % 1020,6 hPa 0,0 l/m 0,0 km/h (0 Bft) N-NO 22 0 min 12,3 C 14,1 C 0,0 km/h (0 Bft)
24.05.2018 06:35 15,3 C 16,4 C 15,1 C 14,8 C 13,9 C 0,0 C 83 % 85 % 1020,3 hPa 0,0 l/m 0,0 km/h (0 Bft) O-NO 67 0 min 12,4 C 13,9 C 0,0 km/h (0 Bft)
24.05.2018 06:40 15,1 C 16,4 C 15,1 C 14,7 C 13,9 C 0,0 C 83 % 84 % 1020,3 hPa 0,0 l/m 0,0 km/h (0 Bft) O-NO 67 0 min 12,2 C 13,9 C 0,0 km/h (0 Bft)
24.05.2018 06:45 15,0 C 16,3 C 15,1 C 14,6 C 13,8 C 0,0 C 83 % 84 % 1020,3 hPa 0,0 l/m 0,2 km/h (0 Bft) NO 45 0 min 12,1 C 13,8 C 1,9 km/h (1 Bft)
24.05.2018 06:50 15,1 C 16,3 C 15,1 C 14,7 C 13,8 C 0,0 C 83 % 84 % 1020,3 hPa 0,0 l/m 0,0 km/h (0 Bft) NO 45 0 min 12,2 C 13,8 C 0,0 km/h (0 Bft)
24.05.2018 06:55 15,1 C 16,4 C 15,1 C 14,7 C 13,9 C 0,0 C 84 % 84 % 1020,4 hPa 0,0 l/m 0,2 km/h (0 Bft) NO 45 0 min 12,4 C 13,9 C 2,7 km/h (1 Bft)
24.05.2018 07:00 14,9 C 16,3 C 15,1 C 14,6 C 14,1 C 0,0 C 84 % 84 % 1020,4 hPa 0,0 l/m 0,3 km/h (0 Bft) NW 315 0 min 12,2 C 14,1 C 0,0 km/h (0 Bft)
24.05.2018 07:05 14,9 C 16,3 C 15,1 C 14,7 C 14,3 C 0,0 C 84 % 84 % 1020,4 hPa 0,0 l/m 0,3 km/h (0 Bft) N-NO 22 0 min 12,2 C 14,3 C 0,0 km/h (0 Bft)
24.05.2018 07:10 14,9 C 16,2 C 15,2 C 14,8 C 14,5 C 0,0 C 84 % 84 % 1020,4 hPa 0,0 l/m 0,2 km/h (0 Bft) W 270 0 min 12,2 C 14,5 C 0,0 km/h (0 Bft)
24.05.2018 07:15 14,9 C 16,2 C 15,3 C 14,8 C 14,7 C 0,0 C 84 % 84 % 1020,6 hPa 0,0 l/m 0,2 km/h (0 Bft) S-SO 157 0 min 12,2 C 14,7 C 0,0 km/h (0 Bft)
24.05.2018 07:20 15,0 C 16,2 C 15,2 C 15,0 C 14,9 C 0,0 C 84 % 84 % 1020,6 hPa 0,0 l/m 0,2 km/h (0 Bft) O-SO 112 0 min 12,3 C 14,9 C 0,0 km/h (0 Bft)
24.05.2018 07:25 14,9 C 16,3 C 15,2 C 15,0 C 15,0 C 0,1 C 84 % 84 % 1020,6 hPa 0,0 l/m 0,2 km/h (0 Bft) O-SO 112 0 min 12,2 C 15,0 C 0,0 km/h (0 Bft)
24.05.2018 07:30 15,0 C 16,3 C 15,2 C 15,1 C 15,1 C 0,1 C 84 % 84 % 1020,6 hPa 0,0 l/m 0,0 km/h (0 Bft) NO 45 0 min 12,3 C 15,1 C 0,0 km/h (0 Bft)
24.05.2018 07:35 15,1 C 16,2 C 15,2 C 15,2 C 15,2 C 0,1 C 83 % 84 % 1020,7 hPa 0,0 l/m 0,2 km/h (0 Bft) NO 45 0 min 12,2 C 15,2 C 1,8 km/h (1 Bft)
24.05.2018 07:40 15,1 C 16,1 C 15,2 C 15,1 C 15,0 C 0,0 C 84 % 85 % 1020,7 hPa 0,0 l/m 0,3 km/h (0 Bft) O-SO 112 0 min 12,4 C 15,0 C 0,0 km/h (0 Bft)
24.05.2018 07:45 15,0 C 16,2 C 15,3 C 15,0 C 14,9 C 0,0 C 83 % 86 % 1020,7 hPa 0,0 l/m 0,2 km/h (0 Bft) O-NO 67 0 min 12,1 C 14,9 C 0,0 km/h (0 Bft)
24.05.2018 07:50 15,1 C 16,1 C 15,3 C 15,1 C 15,1 C 0,0 C 83 % 86 % 1020,7 hPa 0,0 l/m 0,3 km/h (0 Bft) O-NO 67 0 min 12,2 C 15,1 C 0,0 km/h (0 Bft)
24.05.2018 07:55 15,1 C 16,2 C 15,3 C 15,2 C 15,2 C 0,1 C 83 % 86 % 1020,8 hPa 0,0 l/m 0,3 km/h (0 Bft) O-NO 67 0 min 12,2 C 15,2 C 0,0 km/h (0 Bft)
24.05.2018 08:00 15,3 C 16,2 C 15,3 C 15,5 C 15,5 C 0,2 C 82 % 86 % 1020,8 hPa 0,0 l/m 0,0 km/h (0 Bft) NO 45 0 min 12,2 C 15,5 C 0,0 km/h (0 Bft)
24.05.2018 08:05 15,2 C 16,2 C 15,4 C 15,6 C 15,6 C 0,4 C 83 % 86 % 1020,8 hPa 0,0 l/m 0,2 km/h (0 Bft) O-NO 67 0 min 12,3 C 15,6 C 1,8 km/h (1 Bft)
24.05.2018 08:10 15,3 C 16,2 C 15,5 C 15,9 C 15,9 C 0,6 C 82 % 87 % 1020,8 hPa 0,0 l/m 0,8 km/h (0 Bft) O-NO 67 0 min 12,2 C 15,9 C 2,9 km/h (1 Bft)
24.05.2018 08:15 15,4 C 16,1 C 15,4 C 16,0 C 16,0 C 0,6 C 82 % 87 % 1020,6 hPa 0,0 l/m 1,1 km/h (1 Bft) O-NO 67 0 min 12,3 C 16,0 C 0,0 km/h (0 Bft)
24.05.2018 08:20 15,5 C 16,1 C 15,6 C 16,2 C 16,2 C 0,7 C 82 % 87 % 1020,6 hPa 0,0 l/m 1,0 km/h (0 Bft) O-NO 67 0 min 12,4 C 16,2 C 1,9 km/h (1 Bft)
24.05.2018 08:25 15,5 C 16,2 C 15,6 C 16,3 C 16,3 C 0,8 C 82 % 88 % 1020,6 hPa 0,0 l/m 1,3 km/h (1 Bft) NO 45 0 min 12,4 C 16,3 C 1,6 km/h (1 Bft)
24.05.2018 08:30 15,6 C 16,1 C 15,7 C 16,5 C 16,5 C 0,9 C 82 % 88 % 1020,6 hPa 0,0 l/m 1,8 km/h (1 Bft) O-NO 67 0 min 12,5 C 16,5 C 2,3 km/h (1 Bft)
24.05.2018 08:35 15,6 C 16,1 C 15,8 C 16,5 C 16,5 C 0,9 C 81 % 88 % 1020,5 hPa 0,0 l/m 1,4 km/h (1 Bft) O-NO 67 0 min 12,3 C 16,5 C 3,1 km/h (1 Bft)
24.05.2018 08:40 15,7 C 16,1 C 15,7 C 16,5 C 16,5 C 0,8 C 81 % 88 % 1020,5 hPa 0,0 l/m 1,0 km/h (0 Bft) O-NO 67 0 min 12,4 C 16,5 C 0,0 km/h (0 Bft)
24.05.2018 08:45 15,7 C 16,1 C 15,7 C 16,5 C 16,5 C 0,8 C 81 % 88 % 1020,5 hPa 0,0 l/m 1,6 km/h (1 Bft) O-NO 67 0 min 12,4 C 16,5 C 2,6 km/h (1 Bft)
24.05.2018 08:50 15,7 C 16,1 C 15,9 C 16,5 C 16,5 C 0,8 C 81 % 88 % 1020,5 hPa 0,0 l/m 1,8 km/h (1 Bft) O-NO 67 0 min 12,4 C 16,5 C 3,9 km/h (1 Bft)
24.05.2018 08:55 15,8 C 16,1 C 15,9 C 16,5 C 16,5 C 0,7 C 81 % 88 % 1020,8 hPa 0,0 l/m 1,6 km/h (1 Bft) O-NO 67 0 min 12,5 C 16,5 C 2,6 km/h (1 Bft)
24.05.2018 09:00 15,8 C 16,1 C 15,9 C 16,6 C 16,6 C 0,8 C 81 % 88 % 1020,8 hPa 0,0 l/m 1,0 km/h (0 Bft) N-NO 22 0 min 12,5 C 16,6 C 0,0 km/h (0 Bft)
24.05.2018 09:05 15,9 C 16,1 C 16,0 C 16,8 C 16,8 C 0,9 C 81 % 88 % 1020,8 hPa 0,0 l/m 0,5 km/h (0 Bft) O-NO 67 0 min 12,6 C 16,8 C 0,0 km/h (0 Bft)
24.05.2018 09:10 16,0 C 16,1 C 16,2 C 17,1 C 17,1 C 1,1 C 82 % 88 % 1020,8 hPa 0,0 l/m 0,0 km/h (0 Bft) O-NO 67 0 min 12,9 C 17,1 C 0,0 km/h (0 Bft)
24.05.2018 09:15 16,1 C 16,1 C 16,3 C 17,3 C 17,3 C 1,2 C 82 % 88 % 1020,8 hPa 0,0 l/m 0,0 km/h (0 Bft) NW 315 0 min 13,0 C 17,3 C 0,0 km/h (0 Bft)
24.05.2018 09:20 16,3 C 16,1 C 16,4 C 17,6 C 17,6 C 1,3 C 82 % 88 % 1020,8 hPa 0,0 l/m 0,0 km/h (0 Bft) N-NO 22 0 min 13,2 C 17,6 C 0,0 km/h (0 Bft)
24.05.2018 09:25 16,4 C 16,1 C 16,4 C 17,8 C 17,8 C 1,4 C 82 % 88 % 1020,8 hPa 0,0 l/m 0,2 km/h (0 Bft) N-NO 22 0 min 13,3 C 17,8 C 0,0 km/h (0 Bft)
24.05.2018 09:30 16,5 C 16,1 C 16,7 C 17,9 C 17,9 C 1,4 C 82 % 88 % 1020,8 hPa 0,0 l/m 0,2 km/h (0 Bft) O-NO 67 0 min 13,4 C 17,9 C 0,0 km/h (0 Bft)
24.05.2018 09:35 16,6 C 16,1 C 16,6 C 18,1 C 18,1 C 1,5 C 81 % 88 % 1020,8 hPa 0,0 l/m 0,0 km/h (0 Bft) O-NO 67 0 min 13,3 C 18,1 C 0,0 km/h (0 Bft)
24.05.2018 09:40 16,8 C 16,1 C 16,7 C 18,1 C 18,1 C 1,3 C 81 % 88 % 1020,8 hPa 0,0 l/m 0,0 km/h (0 Bft) N-NO 22 0 min 13,5 C 18,1 C 0,0 km/h (0 Bft)
24.05.2018 09:45 16,8 C 16,1 C 16,8 C 18,2 C 18,2 C 1,4 C 81 % 88 % 1020,8 hPa 0,0 l/m 0,0 km/h (0 Bft) N-NO 22 0 min 13,5 C 18,2 C 0,0 km/h (0 Bft)
24.05.2018 09:50 16,9 C 16,1 C 16,7 C 18,2 C 18,2 C 1,3 C 80 % 87 % 1020,8 hPa 0,0 l/m 0,6 km/h (0 Bft) O-NO 67 0 min 13,4 C 18,2 C 3,4 km/h (1 Bft)
24.05.2018 09:55 16,8 C 16,1 C 16,7 C 18,1 C 18,1 C 1,3 C 80 % 87 % 1020,9 hPa 0,0 l/m 1,0 km/h (0 Bft) O-NO 67 0 min 13,3 C 18,1 C 3,5 km/h (1 Bft)
24.05.2018 10:00 16,8 C 16,1 C 16,8 C 18,1 C 18,1 C 1,3 C 80 % 87 % 1020,9 hPa 0,0 l/m 1,8 km/h (1 Bft) O-NO 67 0 min 13,3 C 18,1 C 3,1 km/h (1 Bft)
24.05.2018 10:05 16,8 C 16,1 C 16,8 C 18,1 C 18,1 C 1,3 C 79 % 86 % 1020,9 hPa 0,0 l/m 2,4 km/h (1 Bft) O-NO 67 0 min 13,1 C 18,1 C 3,7 km/h (1 Bft)
24.05.2018 10:10 16,8 C 16,1 C 16,9 C 18,1 C 18,1 C 1,3 C 79 % 86 % 1020,9 hPa 0,0 l/m 2,9 km/h (1 Bft) O-SO 112 0 min 13,1 C 18,1 C 2,7 km/h (1 Bft)
24.05.2018 10:15 16,9 C 16,1 C 16,9 C 18,1 C 18,1 C 1,2 C 79 % 86 % 1020,8 hPa 0,0 l/m 2,7 km/h (1 Bft) O-NO 67 0 min 13,2 C 18,1 C 1,8 km/h (1 Bft)
24.05.2018 10:20 17,1 C 16,0 C 17,1 C 18,2 C 18,2 C 1,1 C 79 % 86 % 1020,8 hPa 0,0 l/m 1,9 km/h (1 Bft) N-NO 22 0 min 13,4 C 18,2 C 0,0 km/h (0 Bft)
24.05.2018 10:25 17,1 C 16,1 C 17,1 C 18,3 C 18,3 C 1,2 C 79 % 86 % 1020,8 hPa 0,0 l/m 1,4 km/h (1 Bft) O-NO 67 0 min 13,4 C 18,3 C 2,9 km/h (1 Bft)
24.05.2018 10:30 17,2 C 16,1 C 17,1 C 18,4 C 18,4 C 1,2 C 79 % 86 % 1020,8 hPa 0,0 l/m 1,3 km/h (1 Bft) O-NO 67 0 min 13,5 C 18,4 C 2,4 km/h (1 Bft)
24.05.2018 10:35 17,3 C 16,1 C 17,1 C 18,5 C 18,5 C 1,2 C 78 % 86 % 1020,8 hPa 0,0 l/m 1,4 km/h (1 Bft) O-NO 67 0 min 13,4 C 18,5 C 0,0 km/h (0 Bft)
24.05.2018 10:40 17,3 C 16,1 C 17,3 C 18,5 C 18,5 C 1,2 C 78 % 86 % 1020,8 hPa 0,0 l/m 1,9 km/h (1 Bft) NO 45 0 min 13,4 C 18,5 C 2,1 km/h (1 Bft)
24.05.2018 10:45 17,3 C 16,1 C 17,3 C 18,6 C 18,6 C 1,3 C 78 % 85 % 1020,8 hPa 0,0 l/m 2,1 km/h (1 Bft) NO 45 0 min 13,4 C 18,6 C 2,6 km/h (1 Bft)
24.05.2018 10:50 17,5 C 16,0 C 17,4 C 18,8 C 18,8 C 1,3 C 78 % 85 % 1020,8 hPa 0,0 l/m 2,3 km/h (1 Bft) O-NO 67 0 min 13,6 C 18,8 C 3,1 km/h (1 Bft)
24.05.2018 10:55 17,5 C 16,1 C 17,6 C 19,0 C 19,0 C 1,5 C 78 % 85 % 1020,8 hPa 0,0 l/m 2,4 km/h (1 Bft) NO 45 0 min 13,6 C 19,0 C 3,4 km/h (1 Bft)
24.05.2018 11:00 17,7 C 16,1 C 17,7 C 19,2 C 19,2 C 1,5 C 78 % 84 % 1020,8 hPa 0,0 l/m 2,6 km/h (1 Bft) NO 45 0 min 13,8 C 19,2 C 3,2 km/h (1 Bft)
24.05.2018 11:05 17,9 C 16,1 C 17,9 C 19,4 C 19,4 C 1,5 C 78 % 84 % 1020,8 hPa 0,0 l/m 2,4 km/h (1 Bft) O-NO 67 0 min 14,0 C 19,4 C 2,4 km/h (1 Bft)
24.05.2018 11:10 18,1 C 16,0 C 18,1 C 19,7 C 19,7 C 1,6 C 78 % 84 % 1020,8 hPa 0,0 l/m 1,6 km/h (1 Bft) O 90 0 min 14,2 C 19,7 C 0,0 km/h (0 Bft)
24.05.2018 11:15 18,3 C 16,0 C 18,2 C 20,1 C 20,1 C 1,8 C 79 % 84 % 1021,0 hPa 0,0 l/m 0,8 km/h (0 Bft) O-NO 67 0 min 14,6 C 20,1 C 0,0 km/h (0 Bft)
24.05.2018 11:20 18,4 C 16,0 C 18,4 C 20,6 C 20,6 C 2,2 C 78 % 85 % 1021,0 hPa 0,0 l/m 0,2 km/h (0 Bft) S 180 0 min 14,5 C 20,6 C 0,0 km/h (0 Bft)
24.05.2018 11:25 18,7 C 16,0 C 18,7 C 20,8 C 20,8 C 2,1 C 78 % 85 % 1021,0 hPa 0,0 l/m 0,2 km/h (0 Bft) O-NO 67 0 min 14,8 C 20,8 C 1,9 km/h (1 Bft)
24.05.2018 11:30 18,8 C 16,0 C 18,9 C 21,2 C 21,2 C 2,4 C 78 % 84 % 1021,0 hPa 0,0 l/m 0,2 km/h (0 Bft) O-NO 67 0 min 14,9 C 21,2 C 0,0 km/h (0 Bft)
24.05.2018 11:35 19,0 C 16,0 C 18,9 C 21,4 C 21,4 C 2,4 C 78 % 84 % 1021,0 hPa 0,0 l/m 0,2 km/h (0 Bft) N-NW 337 0 min 15,1 C 21,4 C 0,0 km/h (0 Bft)
24.05.2018 11:40 19,3 C 16,0 C 19,3 C 21,8 C 21,8 C 2,5 C 78 % 83 % 1021,0 hPa 0,0 l/m 0,2 km/h (0 Bft) O-NO 67 0 min 15,4 C 21,8 C 0,0 km/h (0 Bft)
24.05.2018 11:45 19,5 C 16,0 C 19,2 C 21,9 C 21,9 C 2,4 C 77 % 84 % 1021,0 hPa 0,0 l/m 1,0 km/h (0 Bft) O-NO 67 0 min 15,4 C 21,9 C 5,6 km/h (1 Bft)
24.05.2018 11:50 19,5 C 16,0 C 19,4 C 21,7 C 21,7 C 2,2 C 76 % 81 % 1021,0 hPa 0,0 l/m 2,7 km/h (1 Bft) O-NO 67 0 min 15,2 C 21,7 C 3,4 km/h (1 Bft)
24.05.2018 11:55 19,5 C 16,0 C 19,5 C 21,6 C 21,6 C 2,1 C 76 % 80 % 1020,9 hPa 0,0 l/m 3,9 km/h (1 Bft) S-SW 202 0 min 15,2 C 21,6 C 4,8 km/h (1 Bft)
24.05.2018 12:00 19,7 C 16,0 C 19,6 C 21,6 C 21,6 C 1,9 C 75 % 80 % 1020,9 hPa 0,0 l/m 3,1 km/h (1 Bft) O-NO 67 0 min 15,1 C 21,6 C 0,0 km/h (0 Bft)
24.05.2018 12:05 19,8 C 16,0 C 19,7 C 21,8 C 21,8 C 2,0 C 76 % 80 % 1020,9 hPa 0,0 l/m 1,8 km/h (1 Bft) NO 45 0 min 15,4 C 21,8 C 8,2 km/h (2 Bft)
24.05.2018 12:10 19,9 C 16,0 C 19,9 C 22,0 C 22,0 C 2,1 C 76 % 81 % 1020,9 hPa 0,0 l/m 0,6 km/h (0 Bft) NO 45 0 min 15,5 C 22,0 C 2,4 km/h (1 Bft)
24.05.2018 12:15 20,0 C 16,0 C 19,9 C 22,0 C 22,0 C 2,0 C 76 % 79 % 1020,6 hPa 0,0 l/m 0,6 km/h (0 Bft) NO 45 0 min 15,6 C 22,0 C 0,0 km/h (0 Bft)
24.05.2018 12:20 20,0 C 16,0 C 19,9 C 21,8 C 21,8 C 1,8 C 75 % 79 % 1020,6 hPa 0,0 l/m 1,0 km/h (0 Bft) O-NO 67 0 min 15,4 C 21,8 C 0,0 km/h (0 Bft)
24.05.2018 12:25 20,0 C 16,1 C 19,9 C 22,0 C 22,0 C 2,0 C 76 % 80 % 1020,6 hPa 0,0 l/m 0,8 km/h (0 Bft) O 90 0 min 15,6 C 22,0 C 0,0 km/h (0 Bft)
24.05.2018 12:30 20,3 C 16,0 C 20,1 C 22,3 C 22,3 C 2,0 C 76 % 80 % 1020,6 hPa 0,0 l/m 0,2 km/h (0 Bft) NO 45 0 min 15,9 C 22,3 C 0,0 km/h (0 Bft)
24.05.2018 12:35 20,4 C 16,0 C 20,3 C 22,6 C 22,6 C 2,2 C 76 % 79 % 1020,4 hPa 0,0 l/m 0,3 km/h (0 Bft) NO 45 0 min 16,0 C 22,6 C 1,6 km/h (1 Bft)
24.05.2018 12:40 20,6 C 16,1 C 20,4 C 22,9 C 22,9 C 2,3 C 75 % 79 % 1020,4 hPa 0,0 l/m 0,3 km/h (0 Bft) O-NO 67 0 min 16,0 C 22,9 C 1,6 km/h (1 Bft)
24.05.2018 12:45 20,8 C 16,1 C 20,4 C 23,0 C 23,0 C 2,2 C 75 % 79 % 1020,4 hPa 0,0 l/m 0,3 km/h (0 Bft) O-NO 67 0 min 16,2 C 23,0 C 0,0 km/h (0 Bft)
24.05.2018 12:50 20,8 C 16,1 C 20,6 C 22,9 C 22,9 C 2,1 C 74 % 77 % 1020,4 hPa 0,0 l/m 2,3 km/h (1 Bft) O-NO 67 0 min 16,0 C 22,9 C 3,4 km/h (1 Bft)
24.05.2018 12:55 20,7 C 16,1 C 20,7 C 22,8 C 22,8 C 2,1 C 73 % 76 % 1020,2 hPa 0,0 l/m 3,5 km/h (1 Bft) O-NO 67 0 min 15,7 C 22,8 C 4,2 km/h (1 Bft)
24.05.2018 13:00 20,8 C 16,1 C 20,7 C 22,8 C 22,8 C 2,0 C 72 % 75 % 1020,2 hPa 0,0 l/m 3,5 km/h (1 Bft) O 90 0 min 15,6 C 22,8 C 4,7 km/h (1 Bft)
24.05.2018 13:10 20,9 C 16,1 C 20,9 C 22,9 C 22,9 C 2,0 C 71 % 75 % 1020,2 hPa 0,0 l/m 4,7 km/h (1 Bft) O-NO 67 0 min 15,4 C 22,9 C 9,2 km/h (2 Bft)
24.05.2018 13:15 21,0 C 16,1 C 21,1 C 22,9 C 22,9 C 1,9 C 71 % 75 % 1020,1 hPa 0,0 l/m 5,0 km/h (1 Bft) NO 45 0 min 15,5 C 22,9 C 5,1 km/h (1 Bft)
24.05.2018 13:20 21,0 C 16,1 C 21,3 C 23,1 C 23,1 C 2,1 C 71 % 75 % 1020,1 hPa 0,0 l/m 4,8 km/h (1 Bft) O-NO 67 0 min 15,5 C 23,1 C 5,1 km/h (1 Bft)
24.05.2018 13:25 21,2 C 16,2 C 21,3 C 23,3 C 23,3 C 2,1 C 72 % 75 % 1020,1 hPa 0,0 l/m 4,0 km/h (1 Bft) O-NO 67 0 min 15,9 C 23,3 C 4,5 km/h (1 Bft)
24.05.2018 13:30 21,3 C 16,2 C 21,4 C 23,5 C 23,5 C 2,2 C 70 % 73 % 1020,1 hPa 0,0 l/m 4,7 km/h (1 Bft) O-NO 67 0 min 15,6 C 23,5 C 4,3 km/h (1 Bft)
24.05.2018 13:35 21,4 C 16,2 C 21,7 C 23,7 C 23,7 C 2,3 C 70 % 72 % 1019,9 hPa 0,0 l/m 4,8 km/h (1 Bft) O-NO 67 0 min 15,7 C 23,7 C 4,8 km/h (1 Bft)
24.05.2018 13:40 21,5 C 16,2 C 21,7 C 23,9 C 23,9 C 2,4 C 69 % 71 % 1019,9 hPa 0,0 l/m 4,7 km/h (1 Bft) O-NO 67 0 min 15,6 C 23,9 C 4,8 km/h (1 Bft)
24.05.2018 13:45 21,6 C 16,2 C 21,8 C 24,0 C 24,0 C 2,4 C 69 % 72 % 1019,9 hPa 0,0 l/m 5,0 km/h (1 Bft) O-SO 112 0 min 15,7 C 24,0 C 10,5 km/h (2 Bft)
24.05.2018 13:50 21,7 C 16,2 C 22,1 C 24,2 C 24,2 C 2,5 C 68 % 71 % 1019,9 hPa 0,0 l/m 4,5 km/h (1 Bft) O-NO 67 0 min 15,5 C 24,2 C 7,6 km/h (2 Bft)
24.05.2018 13:55 21,9 C 16,2 C 22,3 C 24,5 C 24,5 C 2,6 C 68 % 70 % 1019,4 hPa 0,0 l/m 4,5 km/h (1 Bft) O-NO 67 0 min 15,7 C 24,5 C 10,8 km/h (2 Bft)
24.05.2018 14:00 22,1 C 16,2 C 22,3 C 24,7 C 24,7 C 2,6 C 68 % 70 % 1019,4 hPa 0,0 l/m 3,9 km/h (1 Bft) NO 45 0 min 15,9 C 24,7 C 4,3 km/h (1 Bft)
24.05.2018 14:05 22,0 C 16,2 C 22,2 C 24,7 C 24,7 C 2,7 C 67 % 69 % 1019,4 hPa 0,0 l/m 4,2 km/h (1 Bft) O-NO 67 0 min 15,6 C 24,7 C 6,0 km/h (2 Bft)
24.05.2018 14:10 22,1 C 16,1 C 22,4 C 24,6 C 24,6 C 2,5 C 66 % 69 % 1019,4 hPa 0,0 l/m 5,6 km/h (1 Bft) O-NO 67 0 min 15,4 C 24,6 C 14,8 km/h (3 Bft)
24.05.2018 14:15 22,1 C 16,1 C 22,4 C 24,4 C 24,4 C 2,3 C 65 % 67 % 1019,2 hPa 0,0 l/m 7,1 km/h (2 Bft) O-NO 67 0 min 15,2 C 24,4 C 10,8 km/h (2 Bft)
24.05.2018 14:20 22,3 C 16,2 C 22,5 C 24,3 C 24,3 C 2,0 C 65 % 68 % 1019,2 hPa 0,0 l/m 7,9 km/h (2 Bft) NO 45 0 min 15,4 C 24,3 C 9,5 km/h (2 Bft)
24.05.2018 14:25 22,2 C 16,2 C 22,5 C 24,3 C 24,3 C 2,1 C 64 % 67 % 1019,2 hPa 0,0 l/m 7,6 km/h (2 Bft) NO 45 0 min 15,1 C 24,3 C 6,9 km/h (2 Bft)
24.05.2018 14:30 22,3 C 16,2 C 22,7 C 24,5 C 24,5 C 2,2 C 64 % 66 % 1019,2 hPa 0,0 l/m 8,2 km/h (2 Bft) NO 45 0 min 15,2 C 24,5 C 11,3 km/h (2 Bft)
24.05.2018 14:35 22,4 C 16,2 C 22,9 C 24,7 C 24,7 C 2,3 C 63 % 65 % 1018,9 hPa 0,0 l/m 8,5 km/h (2 Bft) O-NO 67 0 min 15,0 C 24,7 C 16,9 km/h (3 Bft)
24.05.2018 14:40 22,7 C 16,2 C 23,2 C 25,4 C 25,4 C 2,7 C 63 % 64 % 1018,9 hPa 0,0 l/m 8,2 km/h (2 Bft) NO 45 0 min 15,3 C 25,4 C 10,9 km/h (2 Bft)
24.05.2018 14:45 22,7 C 16,2 C 23,3 C 26,0 C 26,0 C 3,3 C 62 % 63 % 1018,9 hPa 0,0 l/m 7,6 km/h (2 Bft) O-NO 67 5 min 15,0 C 26,0 C 9,5 km/h (2 Bft)
24.05.2018 14:50 23,1 C 16,2 C 23,5 C 26,3 C 26,3 C 3,2 C 64 % 65 % 1018,9 hPa 0,0 l/m 6,8 km/h (2 Bft) O 90 0 min 15,9 C 26,3 C 11,9 km/h (2 Bft)
24.05.2018 14:55 23,1 C 16,2 C 23,3 C 26,2 C 26,2 C 3,1 C 63 % 65 % 1019,0 hPa 0,0 l/m 6,3 km/h (2 Bft) O-NO 67 0 min 15,7 C 26,2 C 5,3 km/h (1 Bft)
24.05.2018 15:00 22,9 C 16,3 C 23,1 C 25,5 C 25,5 C 2,6 C 62 % 65 % 1019,0 hPa 0,0 l/m 7,9 km/h (2 Bft) O-SO 112 0 min 15,2 C 25,5 C 8,2 km/h (2 Bft)
24.05.2018 15:05 22,8 C 16,3 C 23,0 C 24,8 C 24,8 C 2,0 C 62 % 64 % 1019,0 hPa 0,0 l/m 8,0 km/h (2 Bft) NO 45 0 min 15,1 C 24,8 C 19,8 km/h (3 Bft)
24.05.2018 15:10 22,8 C 16,3 C 23,1 C 25,0 C 25,0 C 2,2 C 62 % 64 % 1019,0 hPa 0,0 l/m 6,8 km/h (2 Bft) O-SO 112 0 min 15,1 C 25,0 C 8,5 km/h (2 Bft)
24.05.2018 15:15 22,8 C 16,3 C 23,1 C 25,1 C 25,1 C 2,3 C 62 % 64 % 1018,8 hPa 0,0 l/m 6,6 km/h (2 Bft) O-NO 67 0 min 15,1 C 25,1 C 9,7 km/h (2 Bft)
24.05.2018 15:20 22,9 C 16,3 C 22,9 C 24,7 C 24,7 C 1,8 C 61 % 63 % 1018,8 hPa 0,0 l/m 8,4 km/h (2 Bft) O-NO 67 0 min 15,0 C 24,7 C 10,8 km/h (2 Bft)
24.05.2018 15:25 22,8 C 16,3 C 22,8 C 24,3 C 24,3 C 1,5 C 61 % 64 % 1018,8 hPa 0,0 l/m 9,0 km/h (2 Bft) O-NO 67 0 min 14,9 C 24,3 C 6,9 km/h (2 Bft)
24.05.2018 15:30 22,7 C 16,3 C 22,7 C 23,9 C 23,9 C 1,2 C 61 % 64 % 1018,8 hPa 0,0 l/m 8,5 km/h (2 Bft) O-NO 67 0 min 14,8 C 23,9 C 6,6 km/h (2 Bft)
24.05.2018 15:35 22,7 C 16,3 C 22,7 C 23,7 C 23,7 C 1,0 C 61 % 63 % 1019,0 hPa 0,0 l/m 7,7 km/h (2 Bft) O-NO 67 0 min 14,8 C 23,7 C 11,7 km/h (2 Bft)
24.05.2018 15:40 22,5 C 16,3 C 22,5 C 23,6 C 23,6 C 1,1 C 60 % 63 % 1019,0 hPa 0,0 l/m 7,9 km/h (2 Bft) O-NO 67 0 min 14,3 C 23,6 C 11,3 km/h (2 Bft)
24.05.2018 15:45 22,5 C 16,3 C 22,6 C 23,7 C 23,7 C 1,2 C 60 % 63 % 1019,0 hPa 0,0 l/m 8,4 km/h (2 Bft) O-NO 67 0 min 14,3 C 23,7 C 11,3 km/h (2 Bft)
24.05.2018 15:50 22,5 C 16,3 C 22,5 C 23,7 C 23,7 C 1,2 C 61 % 63 % 1019,0 hPa 0,0 l/m 6,9 km/h (2 Bft) O-SO 112 0 min 14,6 C 23,7 C 11,3 km/h (2 Bft)
24.05.2018 15:55 22,5 C 16,3 C 22,7 C 23,8 C 23,8 C 1,3 C 60 % 63 % 1018,7 hPa 0,0 l/m 6,8 km/h (2 Bft) O-NO 67 0 min 14,3 C 23,8 C 9,8 km/h (2 Bft)
24.05.2018 16:00 22,6 C 16,4 C 22,5 C 23,8 C 23,8 C 1,2 C 60 % 64 % 1018,7 hPa 0,0 l/m 7,2 km/h (2 Bft) NO 45 0 min 14,4 C 23,8 C 10,1 km/h (2 Bft)
24.05.2018 16:05 22,7 C 16,4 C 22,5 C 23,8 C 23,8 C 1,1 C 60 % 64 % 1018,7 hPa 0,0 l/m 7,7 km/h (2 Bft) O-NO 67 0 min 14,5 C 23,8 C 6,4 km/h (2 Bft)
24.05.2018 16:10 22,5 C 16,4 C 22,5 C 23,7 C 23,7 C 1,2 C 60 % 63 % 1018,7 hPa 0,0 l/m 8,2 km/h (2 Bft) O-NO 67 0 min 14,3 C 23,7 C 7,4 km/h (2 Bft)
24.05.2018 16:15 22,5 C 16,4 C 22,6 C 23,7 C 23,7 C 1,2 C 60 % 62 % 1018,6 hPa 0,0 l/m 8,4 km/h (2 Bft) O-NO 67 0 min 14,3 C 23,7 C 13,4 km/h (3 Bft)
24.05.2018 16:20 22,4 C 16,4 C 22,4 C 23,5 C 23,5 C 1,1 C 60 % 63 % 1018,6 hPa 0,0 l/m 7,7 km/h (2 Bft) NO 45 0 min 14,2 C 23,5 C 9,0 km/h (2 Bft)
24.05.2018 16:25 22,5 C 16,4 C 22,4 C 23,5 C 23,5 C 1,0 C 61 % 63 % 1018,6 hPa 0,0 l/m 6,9 km/h (2 Bft) O-NO 67 0 min 14,6 C 23,5 C 9,5 km/h (2 Bft)
24.05.2018 16:30 22,4 C 16,4 C 22,4 C 23,3 C 23,3 C 0,9 C 61 % 64 % 1018,6 hPa 0,0 l/m 6,8 km/h (2 Bft) O-NO 67 0 min 14,5 C 23,3 C 9,8 km/h (2 Bft)
24.05.2018 16:35 22,4 C 16,4 C 22,3 C 23,3 C 23,3 C 0,9 C 60 % 64 % 1018,9 hPa 0,0 l/m 7,1 km/h (2 Bft) NO 45 0 min 14,2 C 23,3 C 4,8 km/h (1 Bft)
24.05.2018 16:40 22,3 C 16,4 C 22,3 C 23,2 C 23,2 C 0,9 C 61 % 64 % 1018,9 hPa 0,0 l/m 7,1 km/h (2 Bft) NO 45 0 min 14,4 C 23,2 C 6,8 km/h (2 Bft)
24.05.2018 16:45 22,3 C 16,4 C 22,2 C 23,2 C 23,2 C 0,9 C 60 % 64 % 1018,9 hPa 0,0 l/m 7,7 km/h (2 Bft) O-SO 112 0 min 14,2 C 23,2 C 12,1 km/h (2 Bft)
24.05.2018 16:50 22,3 C 16,4 C 22,3 C 23,2 C 23,2 C 0,9 C 60 % 63 % 1018,9 hPa 0,0 l/m 8,9 km/h (2 Bft) O-NO 67 0 min 14,2 C 23,2 C 8,5 km/h (2 Bft)
24.05.2018 16:55 22,3 C 16,4 C 22,3 C 23,2 C 23,2 C 0,9 C 60 % 63 % 1018,9 hPa 0,0 l/m 8,5 km/h (2 Bft) O-NO 67 0 min 14,2 C 23,2 C 8,4 km/h (2 Bft)
24.05.2018 17:00 22,3 C 16,4 C 22,2 C 23,0 C 23,0 C 0,7 C 61 % 63 % 1018,9 hPa 0,0 l/m 7,1 km/h (2 Bft) NO 45 0 min 14,4 C 23,0 C 11,6 km/h (2 Bft)
24.05.2018 17:05 22,2 C 16,5 C 22,1 C 23,0 C 23,0 C 0,8 C 61 % 64 % 1018,9 hPa 0,0 l/m 6,9 km/h (2 Bft) NO 45 0 min 14,3 C 23,0 C 7,6 km/h (2 Bft)
24.05.2018 17:10 22,2 C 16,5 C 22,0 C 22,8 C 22,8 C 0,6 C 61 % 64 % 1018,9 hPa 0,0 l/m 6,9 km/h (2 Bft) O-NO 67 0 min 14,3 C 22,8 C 6,3 km/h (2 Bft)
24.05.2018 17:15 22,1 C 16,5 C 22,1 C 22,8 C 22,8 C 0,7 C 61 % 64 % 1018,7 hPa 0,0 l/m 6,8 km/h (2 Bft) O-NO 67 0 min 14,2 C 22,8 C 5,1 km/h (1 Bft)
24.05.2018 17:20 22,1 C 16,5 C 22,1 C 22,7 C 22,7 C 0,6 C 61 % 65 % 1018,7 hPa 0,0 l/m 6,3 km/h (2 Bft) O-NO 67 0 min 14,2 C 22,7 C 6,0 km/h (2 Bft)
24.05.2018 17:25 22,1 C 16,5 C 22,0 C 22,7 C 22,7 C 0,6 C 61 % 64 % 1018,7 hPa 0,0 l/m 6,6 km/h (2 Bft) NO 45 0 min 14,2 C 22,7 C 7,9 km/h (2 Bft)
24.05.2018 17:30 22,1 C 16,5 C 22,1 C 22,8 C 22,8 C 0,7 C 61 % 64 % 1018,7 hPa 0,0 l/m 6,6 km/h (2 Bft) O-NO 67 0 min 14,2 C 22,8 C 9,5 km/h (2 Bft)
24.05.2018 17:35 22,1 C 16,5 C 22,1 C 22,7 C 22,7 C 0,6 C 62 % 65 % 1018,6 hPa 0,0 l/m 6,4 km/h (2 Bft) O-NO 67 0 min 14,5 C 22,7 C 5,8 km/h (2 Bft)
24.05.2018 17:40 22,0 C 16,5 C 21,9 C 22,6 C 22,6 C 0,6 C 62 % 65 % 1018,6 hPa 0,0 l/m 6,3 km/h (2 Bft) O-NO 67 0 min 14,4 C 22,6 C 6,0 km/h (2 Bft)
24.05.2018 17:45 22,0 C 16,5 C 21,8 C 22,5 C 22,5 C 0,5 C 62 % 65 % 1018,6 hPa 0,0 l/m 6,1 km/h (2 Bft) O-NO 67 0 min 14,4 C 22,5 C 8,5 km/h (2 Bft)
24.05.2018 17:50 21,9 C 16,5 C 21,7 C 22,3 C 22,3 C 0,4 C 62 % 66 % 1018,6 hPa 0,0 l/m 6,6 km/h (2 Bft) NO 45 0 min 14,3 C 22,3 C 10,1 km/h (2 Bft)
24.05.2018 17:55 21,9 C 16,5 C 21,6 C 22,2 C 22,2 C 0,3 C 62 % 65 % 1018,6 hPa 0,0 l/m 6,8 km/h (2 Bft) O 90 0 min 14,3 C 22,2 C 8,0 km/h (2 Bft)
24.05.2018 18:05 21,8 C 16,5 C 21,5 C 22,1 C 22,1 C 0,3 C 61 % 65 % 1018,6 hPa 0,0 l/m 7,1 km/h (2 Bft) O 90 0 min 13,9 C 22,1 C 9,0 km/h (2 Bft)
24.05.2018 18:10 21,9 C 16,5 C 21,5 C 22,0 C 22,0 C 0,1 C 62 % 65 % 1018,6 hPa 0,0 l/m 5,8 km/h (2 Bft) O-NO 67 0 min 14,3 C 22,0 C 4,8 km/h (1 Bft)
24.05.2018 18:15 21,9 C 16,5 C 21,5 C 22,0 C 22,0 C 0,1 C 61 % 65 % 1018,8 hPa 0,0 l/m 6,0 km/h (2 Bft) O-NO 67 0 min 14,0 C 22,0 C 8,9 km/h (2 Bft)
24.05.2018 18:20 21,9 C 16,5 C 21,5 C 21,9 C 21,9 C 0,0 C 61 % 65 % 1018,8 hPa 0,0 l/m 6,0 km/h (2 Bft) O-NO 67 0 min 14,0 C 21,9 C 8,0 km/h (2 Bft)
24.05.2018 18:25 21,8 C 16,5 C 21,4 C 21,9 C 21,9 C 0,1 C 61 % 65 % 1018,8 hPa 0,0 l/m 5,8 km/h (2 Bft) O-NO 67 0 min 13,9 C 21,9 C 8,0 km/h (2 Bft)
24.05.2018 18:30 21,7 C 16,5 C 21,5 C 21,9 C 21,9 C 0,2 C 61 % 65 % 1018,8 hPa 0,0 l/m 6,6 km/h (2 Bft) NO 45 0 min 13,8 C 21,9 C 10,8 km/h (2 Bft)
24.05.2018 18:35 21,7 C 16,5 C 21,5 C 22,0 C 22,0 C 0,3 C 61 % 65 % 1018,5 hPa 0,0 l/m 6,3 km/h (2 Bft) O-NO 67 0 min 13,8 C 22,0 C 5,6 km/h (1 Bft)
24.05.2018 18:40 21,7 C 16,6 C 21,4 C 21,9 C 21,9 C 0,2 C 61 % 65 % 1018,5 hPa 0,0 l/m 6,6 km/h (2 Bft) NO 45 0 min 13,8 C 21,9 C 7,2 km/h (2 Bft)
24.05.2018 18:45 21,7 C 16,6 C 21,3 C 21,9 C 21,9 C 0,2 C 61 % 66 % 1018,5 hPa 0,0 l/m 6,4 km/h (2 Bft) O-NO 67 0 min 13,8 C 21,9 C 5,5 km/h (1 Bft)
24.05.2018 18:50 21,6 C 16,6 C 21,3 C 21,8 C 21,8 C 0,2 C 61 % 66 % 1018,5 hPa 0,0 l/m 6,8 km/h (2 Bft) NO 45 0 min 13,7 C 21,8 C 10,1 km/h (2 Bft)
24.05.2018 18:55 21,7 C 16,6 C 21,2 C 21,8 C 21,8 C 0,1 C 60 % 65 % 1018,9 hPa 0,0 l/m 7,7 km/h (2 Bft) O-NO 67 0 min 13,6 C 21,8 C 8,2 km/h (2 Bft)
24.05.2018 19:00 21,6 C 16,6 C 21,2 C 21,8 C 21,8 C 0,2 C 61 % 65 % 1018,9 hPa 0,0 l/m 8,0 km/h (2 Bft) O-NO 67 0 min 13,7 C 21,8 C 7,2 km/h (2 Bft)
24.05.2018 19:05 21,7 C 16,6 C 21,3 C 21,8 C 21,8 C 0,1 C 61 % 66 % 1018,9 hPa 0,0 l/m 6,9 km/h (2 Bft) O-NO 67 0 min 13,8 C 21,8 C 7,6 km/h (2 Bft)
24.05.2018 19:10 21,6 C 16,6 C 21,2 C 21,7 C 21,7 C 0,1 C 61 % 65 % 1018,9 hPa 0,0 l/m 6,8 km/h (2 Bft) O-NO 67 0 min 13,7 C 21,7 C 7,4 km/h (2 Bft)
24.05.2018 19:15 21,6 C 16,6 C 21,1 C 21,7 C 21,7 C 0,1 C 61 % 65 % 1018,9 hPa 0,0 l/m 6,8 km/h (2 Bft) O-NO 67 0 min 13,7 C 21,7 C 8,5 km/h (2 Bft)
24.05.2018 19:20 21,5 C 16,7 C 21,1 C 21,6 C 21,6 C 0,1 C 61 % 65 % 1018,9 hPa 0,0 l/m 7,2 km/h (2 Bft) NO 45 0 min 13,7 C 21,6 C 12,1 km/h (2 Bft)
24.05.2018 19:25 21,5 C 16,7 C 21,1 C 21,5 C 21,5 C 0,0 C 61 % 66 % 1018,9 hPa 0,0 l/m 7,1 km/h (2 Bft) O-NO 67 0 min 13,7 C 21,5 C 6,4 km/h (2 Bft)
24.05.2018 19:30 21,5 C 16,7 C 20,9 C 21,5 C 21,4 C 0,0 C 61 % 66 % 1018,9 hPa 0,0 l/m 5,6 km/h (1 Bft) O-NO 67 0 min 13,7 C 21,4 C 5,0 km/h (1 Bft)
24.05.2018 19:35 21,3 C 16,7 C 20,8 C 21,3 C 21,3 C 0,0 C 61 % 66 % 1018,7 hPa 0,0 l/m 5,3 km/h (1 Bft) O-NO 67 0 min 13,5 C 21,3 C 8,2 km/h (2 Bft)
24.05.2018 19:40 21,3 C 16,7 C 20,8 C 21,3 C 21,2 C 0,0 C 61 % 66 % 1018,7 hPa 0,0 l/m 5,1 km/h (1 Bft) O-NO 67 0 min 13,5 C 21,2 C 4,7 km/h (1 Bft)
24.05.2018 19:45 21,2 C 16,7 C 20,7 C 21,2 C 21,1 C 0,0 C 62 % 67 % 1018,7 hPa 0,0 l/m 4,8 km/h (1 Bft) O-NO 67 0 min 13,6 C 21,1 C 3,5 km/h (1 Bft)
24.05.2018 19:50 21,1 C 16,7 C 20,4 C 21,1 C 21,0 C 0,0 C 62 % 68 % 1018,7 hPa 0,0 l/m 3,7 km/h (1 Bft) NO 45 0 min 13,5 C 21,0 C 7,4 km/h (2 Bft)
24.05.2018 19:55 21,0 C 16,7 C 20,5 C 21,0 C 20,9 C 0,0 C 63 % 68 % 1019,0 hPa 0,0 l/m 3,1 km/h (1 Bft) O-NO 67 0 min 13,7 C 20,9 C 0,0 km/h (0 Bft)
24.05.2018 20:00 21,1 C 16,7 C 20,3 C 21,0 C 20,7 C 0,0 C 63 % 70 % 1019,0 hPa 0,0 l/m 1,4 km/h (1 Bft) S-SO 157 0 min 13,8 C 20,7 C 0,0 km/h (0 Bft)
24.05.2018 20:05 20,9 C 16,7 C 20,1 C 20,8 C 20,5 C 0,0 C 65 % 72 % 1019,0 hPa 0,0 l/m 0,8 km/h (0 Bft) S-SW 202 0 min 14,1 C 20,5 C 3,4 km/h (1 Bft)
24.05.2018 20:10 20,5 C 16,7 C 19,7 C 20,3 C 20,0 C 0,0 C 68 % 73 % 1019,0 hPa 0,0 l/m 1,1 km/h (1 Bft) S 180 0 min 14,4 C 20,0 C 0,0 km/h (0 Bft)
24.05.2018 20:15 20,3 C 16,7 C 19,6 C 20,1 C 19,6 C 0,0 C 69 % 75 % 1019,3 hPa 0,0 l/m 0,6 km/h (0 Bft) W 270 0 min 14,4 C 19,6 C 2,3 km/h (1 Bft)
24.05.2018 20:20 20,1 C 16,7 C 19,3 C 19,8 C 19,2 C 0,0 C 70 % 76 % 1019,3 hPa 0,0 l/m 0,2 km/h (0 Bft) S 180 0 min 14,5 C 19,2 C 0,0 km/h (0 Bft)
24.05.2018 20:25 19,9 C 16,7 C 19,2 C 19,6 C 19,0 C 0,0 C 71 % 78 % 1019,3 hPa 0,0 l/m 0,8 km/h (0 Bft) NO 45 0 min 14,5 C 19,0 C 2,4 km/h (1 Bft)
24.05.2018 20:30 19,6 C 16,8 C 19,1 C 19,3 C 18,7 C 0,0 C 73 % 78 % 1019,3 hPa 0,0 l/m 0,8 km/h (0 Bft) O 90 0 min 14,6 C 18,7 C 0,0 km/h (0 Bft)
24.05.2018 20:35 19,5 C 16,8 C 18,9 C 19,2 C 18,5 C 0,0 C 73 % 78 % 1019,4 hPa 0,0 l/m 0,3 km/h (0 Bft) W 270 0 min 14,5 C 18,5 C 0,0 km/h (0 Bft)
24.05.2018 20:40 19,3 C 16,8 C 18,8 C 19,0 C 18,3 C 0,0 C 74 % 79 % 1019,4 hPa 0,0 l/m 0,0 km/h (0 Bft) S 180 0 min 14,5 C 18,3 C 0,0 km/h (0 Bft)
24.05.2018 20:45 19,2 C 16,8 C 18,7 C 18,9 C 18,2 C 0,0 C 74 % 80 % 1019,4 hPa 0,0 l/m 0,0 km/h (0 Bft) O 90 0 min 14,4 C 18,2 C 0,0 km/h (0 Bft)
24.05.2018 20:50 19,1 C 16,8 C 18,5 C 18,7 C 18,0 C 0,0 C 75 % 80 % 1019,4 hPa 0,0 l/m 1,0 km/h (0 Bft) SW 225 0 min 14,6 C 18,0 C 3,1 km/h (1 Bft)
24.05.2018 20:55 18,9 C 16,8 C 18,5 C 18,6 C 18,0 C 0,0 C 75 % 81 % 1019,7 hPa 0,0 l/m 1,1 km/h (1 Bft) SO 135 0 min 14,4 C 18,0 C 0,0 km/h (0 Bft)
24.05.2018 21:00 18,9 C 16,8 C 18,3 C 18,6 C 17,9 C 0,0 C 76 % 81 % 1019,7 hPa 0,0 l/m 0,3 km/h (0 Bft) W-NW 292 0 min 14,6 C 17,9 C 0,0 km/h (0 Bft)
24.05.2018 21:05 18,7 C 16,8 C 18,3 C 18,4 C 17,8 C 0,0 C 77 % 82 % 1019,7 hPa 0,0 l/m 0,6 km/h (0 Bft) SW 225 0 min 14,6 C 17,8 C 1,9 km/h (1 Bft)
24.05.2018 21:10 18,6 C 16,8 C 18,3 C 18,3 C 17,7 C 0,0 C 77 % 82 % 1019,7 hPa 0,0 l/m 0,8 km/h (0 Bft) S 180 0 min 14,5 C 17,7 C 1,8 km/h (1 Bft)
24.05.2018 21:15 18,5 C 16,8 C 18,1 C 18,2 C 17,6 C 0,0 C 78 % 82 % 1019,7 hPa 0,0 l/m 0,3 km/h (0 Bft) S 180 0 min 14,6 C 17,6 C 1,6 km/h (1 Bft)
24.05.2018 21:20 18,3 C 16,8 C 18,1 C 18,0 C 17,4 C 0,0 C 78 % 83 % 1019,7 hPa 0,0 l/m 0,0 km/h (0 Bft) W-SW 247 0 min 14,4 C 17,4 C 0,0 km/h (0 Bft)
24.05.2018 21:25 18,3 C 16,8 C 17,9 C 18,0 C 17,4 C 0,0 C 78 % 83 % 1019,7 hPa 0,0 l/m 0,0 km/h (0 Bft) W-SW 247 0 min 14,4 C 17,4 C 0,0 km/h (0 Bft)
24.05.2018 21:30 18,2 C 16,8 C 17,9 C 17,9 C 17,2 C 0,0 C 79 % 83 % 1019,7 hPa 0,0 l/m 0,0 km/h (0 Bft) W-SW 247 0 min 14,5 C 17,2 C 0,0 km/h (0 Bft)
24.05.2018 21:35 18,1 C 16,8 C 17,7 C 17,8 C 17,1 C 0,0 C 79 % 83 % 1019,5 hPa 0,0 l/m 0,0 km/h (0 Bft) SW 225 0 min 14,4 C 17,1 C 0,0 km/h (0 Bft)
24.05.2018 21:40 18,0 C 16,8 C 17,7 C 17,6 C 16,9 C 0,0 C 79 % 84 % 1019,5 hPa 0,0 l/m 0,0 km/h (0 Bft) S 180 0 min 14,3 C 16,9 C 0,0 km/h (0 Bft)
24.05.2018 21:50 17,8 C 16,9 C 17,3 C 17,4 C 16,6 C 0,0 C 80 % 84 % 1019,5 hPa 0,0 l/m 0,0 km/h (0 Bft) W 270 0 min 14,3 C 16,6 C 0,0 km/h (0 Bft)
24.05.2018 21:55 17,7 C 16,9 C 17,2 C 17,3 C 16,6 C 0,0 C 80 % 84 % 1019,4 hPa 0,0 l/m 0,0 km/h (0 Bft) W 270 0 min 14,2 C 16,6 C 0,0 km/h (0 Bft)
24.05.2018 22:00 17,6 C 16,9 C 17,1 C 17,2 C 16,4 C 0,0 C 81 % 85 % 1019,4 hPa 0,0 l/m 0,0 km/h (0 Bft) W 270 0 min 14,3 C 16,4 C 0,0 km/h (0 Bft)
24.05.2018 22:05 17,5 C 16,9 C 17,0 C 17,1 C 16,4 C 0,0 C 81 % 86 % 1019,4 hPa 0,0 l/m 0,0 km/h (0 Bft) W 270 0 min 14,2 C 16,4 C 0,0 km/h (0 Bft)
24.05.2018 22:10 17,3 C 16,9 C 16,9 C 17,0 C 16,4 C 0,0 C 82 % 86 % 1019,4 hPa 0,0 l/m 0,3 km/h (0 Bft) O-SO 112 0 min 14,2 C 16,4 C 1,6 km/h (1 Bft)
24.05.2018 22:15 17,2 C 16,9 C 16,9 C 16,9 C 16,4 C 0,0 C 82 % 86 % 1019,3 hPa 0,0 l/m 0,5 km/h (0 Bft) NO 45 0 min 14,1 C 16,4 C 0,0 km/h (0 Bft)
24.05.2018 22:20 17,1 C 16,9 C 16,9 C 16,8 C 16,3 C 0,0 C 82 % 86 % 1019,3 hPa 0,0 l/m 0,3 km/h (0 Bft) NO 45 0 min 14,0 C 16,3 C 0,0 km/h (0 Bft)
24.05.2018 22:25 17,0 C 16,9 C 16,8 C 16,8 C 16,3 C 0,0 C 82 % 87 % 1019,3 hPa 0,0 l/m 0,0 km/h (0 Bft) NO 45 0 min 13,9 C 16,3 C 0,0 km/h (0 Bft)
24.05.2018 22:30 16,9 C 16,9 C 16,7 C 16,7 C 16,2 C 0,0 C 83 % 87 % 1019,3 hPa 0,0 l/m 0,0 km/h (0 Bft) O-NO 67 0 min 14,0 C 16,2 C 0,0 km/h (0 Bft)
24.05.2018 22:35 16,8 C 16,9 C 16,7 C 16,6 C 16,1 C 0,0 C 83 % 87 % 1019,2 hPa 0,0 l/m 0,0 km/h (0 Bft) O-NO 67 0 min 13,9 C 16,1 C 0,0 km/h (0 Bft)
24.05.2018 22:40 16,7 C 16,9 C 16,5 C 16,5 C 16,1 C 0,0 C 83 % 87 % 1019,2 hPa 0,0 l/m 0,0 km/h (0 Bft) NO 45 0 min 13,8 C 16,1 C 0,0 km/h (0 Bft)
24.05.2018 22:45 16,7 C 16,9 C 16,5 C 16,5 C 16,0 C 0,0 C 83 % 87 % 1019,2 hPa 0,0 l/m 0,0 km/h (0 Bft) NO 45 0 min 13,8 C 16,0 C 0,0 km/h (0 Bft)
24.05.2018 22:50 16,7 C 16,9 C 16,4 C 16,4 C 15,9 C 0,0 C 83 % 87 % 1019,2 hPa 0,0 l/m 0,0 km/h (0 Bft) NO 45 0 min 13,8 C 15,9 C 0,0 km/h (0 Bft)
24.05.2018 22:55 16,5 C 16,9 C 16,3 C 16,3 C 15,8 C 0,0 C 84 % 87 % 1019,2 hPa 0,0 l/m 0,0 km/h (0 Bft) NO 45 0 min 13,8 C 15,8 C 0,0 km/h (0 Bft)
24.05.2018 23:00 16,5 C 17,0 C 16,3 C 16,2 C 15,7 C 0,0 C 84 % 88 % 1019,2 hPa 0,0 l/m 0,0 km/h (0 Bft) N 360 0 min 13,8 C 15,7 C 0,0 km/h (0 Bft)
24.05.2018 23:05 16,4 C 16,9 C 16,3 C 16,2 C 15,7 C 0,0 C 84 % 88 % 1019,2 hPa 0,0 l/m 0,0 km/h (0 Bft) NO 45 0 min 13,7 C 15,7 C 0,0 km/h (0 Bft)
24.05.2018 23:10 16,3 C 16,9 C 16,3 C 16,1 C 15,8 C 0,0 C 84 % 88 % 1019,2 hPa 0,0 l/m 0,0 km/h (0 Bft) O-NO 67 0 min 13,6 C 15,8 C 0,0 km/h (0 Bft)
24.05.2018 23:15 16,3 C 16,9 C 16,3 C 16,2 C 15,9 C 0,0 C 84 % 88 % 1019,2 hPa 0,0 l/m 0,0 km/h (0 Bft) NO 45 0 min 13,6 C 15,9 C 0,0 km/h (0 Bft)
24.05.2018 23:20 16,3 C 16,9 C 16,4 C 16,2 C 16,0 C 0,0 C 85 % 88 % 1019,2 hPa 0,0 l/m 0,2 km/h (0 Bft) O-NO 67 0 min 13,8 C 16,0 C 1,9 km/h (1 Bft)
24.05.2018 23:30 16,1 C 16,9 C 16,5 C 16,2 C 16,2 C 0,1 C 85 % 88 % 1019,2 hPa 0,0 l/m 0,6 km/h (0 Bft) O-NO 67 0 min 13,6 C 16,2 C 0,0 km/h (0 Bft)
24.05.2018 23:35 16,1 C 16,9 C 16,5 C 16,2 C 16,2 C 0,1 C 85 % 88 % 1019,3 hPa 0,0 l/m 0,2 km/h (0 Bft) NO 45 0 min 13,6 C 16,2 C 0,0 km/h (0 Bft)
24.05.2018 23:40 16,0 C 16,9 C 16,3 C 16,1 C 16,1 C 0,1 C 85 % 88 % 1019,3 hPa 0,0 l/m 0,0 km/h (0 Bft) NO 45 0 min 13,5 C 16,1 C 0,0 km/h (0 Bft)
24.05.2018 23:45 16,0 C 16,9 C 16,2 C 16,0 C 15,9 C 0,0 C 85 % 88 % 1019,3 hPa 0,0 l/m 0,0 km/h (0 Bft) O-SO 112 0 min 13,5 C 15,9 C 0,0 km/h (0 Bft)
24.05.2018 23:50 16,0 C 17,1 C 16,1 C 15,9 C 15,7 C 0,0 C 85 % 88 % 1019,3 hPa 0,0 l/m 0,0 km/h (0 Bft) S 180 0 min 13,5 C 15,7 C 0,0 km/h (0 Bft)
24.05.2018 23:55 15,9 C 17,1 C 16,0 C 15,7 C 15,4 C 0,0 C 85 % 88 % 1019,4 hPa 0,0 l/m 0,0 km/h (0 Bft) S-SO 157 0 min 13,4 C 15,4 C 0,0 km/h (0 Bft)
_ Min-Zeit 07:00 10:20 01:40 06:45 06:45 00:00 15:40 16:15 18:35 - 00:00 - - - 06:45 06:45 00:00
Minimum _ 14,9 C 16,0 C 14,7 C 14,6 C 13,8 C 0,0 C 60 % 62 % 1018,5 hPa - 0,0 km/h (0 Bft) - - - 12,1 C 13,8 C 0,0 km/h (0 Bft)
_ Max-Zeit 14:50 00:00 14:50 14:50 14:50 14:45 00:00 08:25 11:15 00:00 15:25 - - 14:45 12:45 14:50 15:05
Maximum _ 23,1 C 17,2 C 23,5 C 26,3 C 26,3 C 3,3 C 85 % 88 % 1021,0 hPa 0,0 l/m 9,0 km/h
O-NO (2 Bft)
- - 5 min 16,2 C 26,3 C 19,8 km/h
NO (3 Bft)
Durchschnitt _ 18,3 C 16,4 C 18,1 C 18,9 C 18,8 C 0,7 C 75 % 77 % 1019,9 hPa #0,0 l/m 2,5 km/h (1 Bft) O-NO - #5 min. 13,7 C 18,8 C 3,3 km/h (1 Bft)
2018 www.wetterstation-wechselburg.de